Time;durP1;ratioP1;P1;durP2;ratioP2;P2;SDS_P1;SDS_P2;PMS_P1;PMS_P2;Temp;Humidity;BMP_temperature;BMP_pressure;BME280_temperature;BME280_humidity;BME280_pressure;Samples;Min_cycle;Max_cycle;Signal;HPM_P1;HPM_P2
2022/05/20 00:00:55;;;;;;;6.85;4.00;;;14.20;1.00;;;14.99;74.35;99431.63;5039794;27;130401;-72
2022/05/20 00:03:24;;;;;;;7.53;4.53;;;14.10;1.00;;;14.89;75.32;99432.88;5040026;27;129373;-72
2022/05/20 00:05:52;;;;;;;7.13;4.30;;;13.90;1.00;;;14.82;75.50;99426.38;5055069;27;120139;-72
2022/05/20 00:08:22;;;;;;;7.13;3.85;;;13.80;1.00;;;14.81;75.88;99433.00;5040528;27;115397;-73
2022/05/20 00:10:53;;;;;;;10.02;4.75;;;13.80;1.00;;;14.77;78.43;99429.34;5040084;27;130574;-72
2022/05/20 00:13:22;;;;;;;6.57;4.05;;;13.70;1.00;;;14.58;80.54;99433.41;5024987;27;129318;-72
2022/05/20 00:15:51;;;;;;;9.40;4.70;;;13.60;1.00;;;14.41;80.99;99430.88;5040526;27;118892;-72
2022/05/20 00:18:20;;;;;;;9.25;4.45;;;13.40;1.00;;;14.32;82.79;99420.88;5040528;27;115560;-72
2022/05/20 00:20:48;;;;;;;9.13;4.45;;;13.40;1.00;;;14.27;82.37;99421.06;5039870;27;130476;-71
2022/05/20 00:23:17;;;;;;;7.75;4.45;;;13.30;1.00;;;14.31;81.97;99416.53;5055428;27;130266;-73
2022/05/20 00:25:46;;;;;;;8.38;4.60;;;13.20;1.00;;;14.33;82.81;99416.97;5039923;27;118654;-73
2022/05/20 00:28:19;;;;;;;8.18;4.80;;;13.20;1.00;;;14.36;83.55;99415.50;5038930;27;115480;-72
2022/05/20 00:30:50;;;;;;;9.65;5.00;;;13.20;1.00;;;14.33;84.89;99403.31;5041418;27;130001;-72
2022/05/20 00:33:19;;;;;;;9.00;5.00;;;13.20;1.00;;;14.20;88.25;99416.16;5058869;27;129138;-72
2022/05/20 00:35:48;;;;;;;11.27;5.03;;;13.10;1.00;;;14.07;89.93;99417.28;5055579;27;119011;-73
2022/05/20 00:38:17;;;;;;;8.75;4.68;;;13.00;1.00;;;13.93;91.32;99414.84;5040018;27;115964;-73
2022/05/20 00:40:51;;;;;;;8.85;5.57;;;12.90;1.00;;;13.85;92.69;99418.44;5039402;27;130531;-73
2022/05/20 00:43:34;;;;;;;9.32;5.68;;;12.80;1.00;;;13.77;93.58;99411.13;5041362;27;128533;-75
2022/05/20 00:46:06;;;;;;;10.27;6.20;;;12.80;1.00;;;13.73;95.52;99415.66;5039870;27;119317;-73
2022/05/20 00:48:35;;;;;;;10.40;5.68;;;12.80;1.00;;;13.70;95.63;99421.78;5039840;27;115536;-75
2022/05/20 00:51:08;;;;;;;9.85;6.82;;;12.70;1.00;;;13.57;95.55;99416.28;5039006;27;130174;-75
2022/05/20 00:53:42;;;;;;;10.52;6.47;;;12.70;1.00;;;13.46;96.12;99417.81;5038331;27;129960;-75
2022/05/20 00:56:17;;;;;;;7.35;5.30;;;12.60;1.00;;;13.43;95.84;99413.00;5041220;27;119793;-75
2022/05/20 00:58:46;;;;;;;11.23;6.43;;;12.60;1.00;;;13.49;95.97;99411.69;5038368;27;115198;-74
2022/05/20 01:01:15;;;;;;;9.98;6.53;;;12.60;1.00;;;13.53;96.68;99417.28;5041065;27;129913;-74
2022/05/20 01:03:46;;;;;;;10.57;6.70;;;12.60;1.00;;;13.55;97.24;99417.75;5039336;27;129345;-73
2022/05/20 01:06:14;;;;;;;13.30;6.30;;;12.60;1.00;;;13.57;97.12;99410.84;5039721;27;118910;-73
2022/05/20 01:08:43;;;;;;;10.32;6.55;;;12.60;1.00;;;13.65;96.75;99409.97;5039821;27;115946;-72
2022/05/20 01:11:13;;;;;;;8.90;6.00;;;12.60;1.00;;;13.73;96.59;99410.19;5038910;27;129991;-74
2022/05/20 01:13:44;;;;;;;9.63;6.22;;;12.70;1.00;;;13.74;97.06;99406.34;5054621;27;130398;-72
2022/05/20 01:16:13;;;;;;;11.00;6.95;;;12.70;25.80;;;13.73;97.13;99404.75;5039623;27;118842;-72
2022/05/20 01:18:46;;;;;;;9.63;6.85;;;12.70;36.40;;;13.65;97.02;99404.50;5042211;27;116153;-72
2022/05/20 01:21:15;;;;;;;13.00;7.50;;;12.60;30.20;;;13.54;97.90;99397.06;5042486;27;130224;-72
2022/05/20 01:23:45;;;;;;;11.40;7.13;;;12.60;45.80;;;13.48;98.90;99393.75;5041320;27;129827;-72
2022/05/20 01:26:14;;;;;;;11.60;7.30;;;12.60;71.20;;;13.49;99.06;99395.34;5045078;27;118307;-73
2022/05/20 01:28:42;;;;;;;10.55;7.65;;;12.60;96.60;;;13.53;98.80;99390.03;5041656;27;114988;-73
2022/05/20 01:31:14;;;;;;;11.40;8.05;;;12.50;99.90;;;13.56;98.44;99373.78;5042118;27;131457;-73
2022/05/20 01:33:47;;;;;;;9.27;7.60;;;12.50;99.90;;;13.54;99.09;99386.97;5042487;27;129755;-73
2022/05/20 01:36:19;;;;;;;13.05;7.47;;;12.60;99.90;;;13.44;99.43;99392.81;5042779;27;119173;-73
2022/05/20 01:38:49;;;;;;;11.02;7.70;;;12.50;99.90;;;13.30;99.79;99393.06;5043187;27;115126;-73
2022/05/20 01:41:24;;;;;;;10.43;7.32;;;12.50;99.90;;;13.25;99.80;99388.59;5042189;27;129899;-73
2022/05/20 01:44:08;;;;;;;8.90;6.15;;;12.40;99.90;;;13.31;99.34;99392.72;5027209;27;129452;-72
2022/05/20 01:46:41;;;;;;;9.05;7.15;;;12.40;99.90;;;13.41;98.79;99398.94;5044430;27;118209;-72
2022/05/20 01:49:33;;;;;;;11.10;7.20;;;12.40;99.90;;;13.43;99.40;99402.13;5041701;27;115341;-73
2022/05/20 01:52:13;;;;;;;9.65;7.38;;;12.40;99.90;;;13.45;99.27;99410.78;5042095;27;131215;-72
2022/05/20 01:54:58;;;;;;;11.05;6.90;;;12.40;99.90;;;13.29;99.54;99414.06;5042026;27;129787;-72
2022/05/20 01:57:35;;;;;;;11.95;7.35;;;12.40;99.90;;;13.34;99.75;99415.00;5007081;28;117880;-72
2022/05/20 02:00:10;;;;;;;11.90;7.32;;;12.40;99.90;;;13.41;99.76;99415.28;5022454;28;114929;-73
2022/05/20 02:02:46;;;;;;;9.75;7.20;;;12.50;99.90;;;13.44;99.82;99415.41;5021210;28;131151;-72
2022/05/20 02:05:24;;;;;;;13.23;8.10;;;12.50;99.90;;;13.50;100.00;99418.75;5021508;28;130189;-72
2022/05/20 02:07:58;;;;;;;11.18;7.78;;;12.50;99.90;;;13.53;100.00;99428.97;5021676;28;118930;-72
2022/05/20 02:10:34;;;;;;;9.70;7.03;;;12.50;99.90;;;13.51;99.84;99424.97;5003668;28;116374;-72
2022/05/20 02:13:08;;;;;;;9.90;6.73;;;12.50;99.90;;;13.51;100.00;99425.81;4989936;28;130003;-73
2022/05/20 02:15:44;;;;;;;8.52;6.70;;;12.60;99.90;;;13.55;100.00;99425.94;5021389;28;130140;-73
2022/05/20 02:18:15;;;;;;;;;;;12.60;99.90;;;13.49;100.00;99428.03;5024250;28;117758;-72
2022/05/20 02:20:48;;;;;;;11.23;6.90;;;12.60;99.90;;;13.55;100.00;99432.16;5007015;28;113706;-73
2022/05/20 02:23:21;;;;;;;9.20;7.03;;;12.60;99.90;;;13.57;99.43;99434.56;5021250;28;130327;-73
2022/05/20 02:25:56;;;;;;;9.90;7.05;;;12.60;99.90;;;13.51;98.69;99417.63;5021406;28;130203;-72
2022/05/20 02:28:33;;;;;;;8.82;6.85;;;12.60;99.90;;;13.53;99.00;99418.06;5021185;28;119354;-75
2022/05/20 02:31:04;;;;;;;9.90;6.75;;;12.60;99.90;;;13.60;98.35;99415.63;5003510;28;115824;-75
2022/05/20 02:33:33;;;;;;;10.38;7.47;;;12.60;99.90;;;13.60;98.45;99415.63;5020756;28;130531;-73
2022/05/20 02:36:04;;;;;;;11.30;7.15;;;12.60;99.90;;;13.50;98.30;99428.88;5020946;28;130657;-72
2022/05/20 02:38:32;;;;;;;9.30;7.22;;;12.60;99.90;;;13.50;98.13;99418.75;5005854;28;118793;-72
2022/05/20 02:41:02;;;;;;;10.88;7.03;;;12.60;97.00;;;13.45;97.95;99417.00;5020320;28;115472;-71
2022/05/20 02:43:31;;;;;;;10.48;6.13;;;12.60;70.40;;;13.50;98.09;99418.75;5006251;28;129371;-74
2022/05/20 02:46:00;;;;;;;11.02;7.07;;;12.60;55.70;;;13.57;98.27;99407.28;5020875;28;130326;-72
2022/05/20 02:48:30;;;;;;;9.85;6.63;;;12.60;69.60;;;13.63;98.09;99412.22;5021070;28;118886;-72
2022/05/20 02:50:59;;;;;;;11.27;7.75;;;12.60;90.70;;;13.63;97.83;99412.22;4990083;28;114962;-72
2022/05/20 02:53:28;;;;;;;10.90;6.90;;;12.60;77.70;;;13.68;97.78;99404.97;5021024;28;130100;-72
2022/05/20 02:55:57;;;;;;;9.93;7.55;;;12.60;72.70;;;13.75;96.90;99399.78;5029675;27;129454;-74
2022/05/20 03:04:10;;;;;;;10.30;6.70;;;12.60;52.00;;;13.64;96.87;99405.63;5040593;27;130251;-72
2022/05/20 03:06:41;;;;;;;10.60;6.88;;;12.70;10.00;;;13.66;95.63;99411.56;5040779;27;129525;-71
2022/05/20 03:09:13;;;;;;;10.63;7.10;;;12.70;1.00;;;13.71;95.51;99424.16;5041136;27;119751;-71
2022/05/20 03:11:42;;;;;;;13.95;7.30;;;12.70;1.00;;;13.76;95.74;99415.00;5041734;27;114901;-73
2022/05/20 03:14:15;;;;;;;10.18;7.00;;;12.80;1.00;;;13.85;95.04;99407.53;5040742;27;130154;-73
2022/05/20 03:16:44;;;;;;;11.10;6.80;;;12.80;1.00;;;13.83;95.71;99412.53;5042822;27;128826;-73
2022/05/20 03:19:13;;;;;;;11.55;6.68;;;12.80;1.00;;;13.80;95.60;99405.00;5042956;27;117865;-72
2022/05/20 03:21:42;;;;;;;11.45;6.95;;;12.80;1.00;;;13.86;95.04;99409.13;5041106;27;115024;-72
2022/05/20 03:24:12;;;;;;;9.18;6.80;;;12.90;1.00;;;13.83;96.27;99401.63;5040426;27;130705;-72
2022/05/20 03:26:41;;;;;;;10.00;6.75;;;12.90;1.00;;;13.90;96.15;99399.16;5040520;27;130167;-73
2022/05/20 03:29:10;;;;;;;9.35;6.35;;;12.90;1.00;;;14.09;95.17;99401.34;5040793;27;118690;-73
2022/05/20 03:31:41;;;;;;;12.55;7.28;;;13.00;1.00;;;14.23;93.91;99405.69;5040852;27;115660;-73
2022/05/20 03:34:10;;;;;;;9.55;7.90;;;13.10;1.00;;;14.29;93.81;99398.88;5040694;27;130195;-73
2022/05/20 03:36:42;;;;;;;8.57;5.97;;;13.10;1.00;;;14.36;93.12;99399.13;5040463;27;129906;-73
2022/05/20 03:39:15;;;;;;;12.05;6.90;;;13.20;1.00;;;14.46;92.01;99406.06;5024534;27;118080;-73
2022/05/20 03:41:45;;;;;;;10.77;7.55;;;13.20;1.00;;;14.52;91.49;99408.25;5039601;27;119396;-73
2022/05/20 03:44:16;;;;;;;13.10;8.75;;;13.20;1.00;;;14.50;92.15;99402.31;5039057;27;130226;-74
2022/05/20 03:46:49;;;;;;;9.88;7.75;;;13.30;1.00;;;14.51;92.73;99405.88;5038803;27;129199;-74
2022/05/20 03:49:19;;;;;;;9.52;7.47;;;13.30;1.00;;;14.56;93.07;99408.38;5019775;27;123294;-71
2022/05/20 03:51:49;;;;;;;9.82;7.28;;;13.30;1.00;;;14.50;93.96;99404.28;5024389;27;121118;-72
2022/05/20 03:54:20;;;;;;;9.80;6.78;;;13.30;1.00;;;14.42;93.54;99407.91;5038752;27;131130;-71
2022/05/20 03:56:49;;;;;;;11.40;6.97;;;13.30;1.00;;;14.43;94.39;99410.31;5041133;27;129988;-71
2022/05/20 03:59:18;;;;;;;10.95;7.35;;;13.30;1.00;;;14.49;93.76;99405.41;5039267;27;119475;-71
2022/05/20 04:02:00;;;;;;;12.05;7.53;;;13.30;1.00;;;14.51;93.09;99400.41;5038896;27;120161;-71
2022/05/20 04:04:33;;;;;;;11.20;8.25;;;13.30;1.00;;;14.57;93.03;99401.78;5038739;27;129985;-71
2022/05/20 04:07:05;;;;;;;10.18;7.60;;;13.40;1.00;;;14.67;92.11;99406.81;5038982;27;129982;-71
2022/05/20 04:09:34;;;;;;;14.00;7.80;;;13.40;1.00;;;14.83;91.96;99408.84;5038864;27;120274;-71
2022/05/20 04:16:05;;;;;;;11.25;8.05;;;13.60;1.00;;;14.86;92.23;99410.91;5036889;27;130054;-70
2022/05/20 04:22:39;;;;;;;12.77;8.32;;;13.60;1.00;;;14.56;94.14;99416.56;5037833;27;120358;-70
2022/05/20 04:25:08;;;;;;;11.90;7.47;;;13.50;1.00;;;14.46;94.41;99409.63;5040278;27;118340;-70
2022/05/20 04:27:37;;;;;;;9.52;7.97;;;13.50;1.00;;;14.61;93.92;99399.97;5036829;27;130824;-72
2022/05/20 04:30:08;;;;;;;11.40;7.95;;;13.50;1.00;;;14.79;93.01;99399.75;5037842;27;129387;-71
2022/05/20 04:32:36;;;;;;;11.65;7.78;;;13.60;1.00;;;14.85;91.86;99403.84;5037594;27;120952;-72
2022/05/20 04:35:06;;;;;;;10.43;7.70;;;13.60;1.00;;;14.90;90.62;99406.38;5038419;27;119425;-70
2022/05/20 04:37:35;;;;;;;10.13;6.70;;;13.60;1.00;;;14.87;89.39;99401.59;5037903;27;130636;-72
2022/05/20 04:40:05;;;;;;;11.40;7.65;;;13.60;1.00;;;14.81;89.74;99397.50;5037997;27;129496;-72
2022/05/20 04:48:09;;;;;;;10.93;6.05;;;13.80;1.00;;;14.88;88.35;99395.78;5036884;27;130295;-71
2022/05/20 04:50:37;;;;;;;10.85;6.93;;;13.70;1.00;;;14.83;88.23;99395.19;5038434;27;130030;-72
2022/05/20 04:53:07;;;;;;;12.65;7.05;;;13.60;1.00;;;14.94;88.54;99390.84;5036447;27;119650;-72
2022/05/20 04:55:35;;;;;;;10.25;7.03;;;13.70;1.00;;;15.04;88.81;99398.59;5041739;27;119690;-71
2022/05/20 04:58:04;;;;;;;11.88;7.40;;;13.70;1.00;;;15.16;88.36;99402.44;5039065;27;129895;-74
2022/05/20 05:00:33;;;;;;;10.32;6.95;;;13.70;1.00;;;15.23;88.10;99391.75;5037644;27;129703;-72
2022/05/20 05:03:02;;;;;;;11.60;7.57;;;13.70;1.00;;;15.27;88.45;99392.66;5037412;27;120346;-69
2022/05/20 05:05:31;;;;;;;12.73;8.13;;;13.70;1.00;;;15.22;89.08;99399.16;5037148;27;119341;-70
2022/05/20 05:08:00;;;;;;;14.02;8.05;;;13.60;1.00;;;15.19;89.28;99397.09;5021678;27;128773;-70
2022/05/20 05:10:31;;;;;;;10.48;8.40;;;13.50;1.00;;;15.13;90.29;99397.66;5040032;27;129119;-78
2022/05/20 05:13:01;;;;;;;10.35;8.23;;;13.60;1.00;;;15.14;90.23;99393.81;5007167;27;119729;-71
2022/05/20 05:15:30;;;;;;;11.07;8.02;;;13.60;1.00;;;15.17;90.61;99379.44;5038083;27;120045;-70
2022/05/20 05:18:12;;;;;;;11.80;9.32;;;13.60;1.00;;;15.18;92.90;99372.84;5037896;27;130261;-79
2022/05/20 05:20:46;;;;;;;11.57;8.77;;;13.70;1.00;;;15.18;92.73;99361.91;5037720;27;130489;-70
2022/05/20 05:23:15;;;;;;;11.48;8.75;;;13.70;1.00;;;15.14;92.97;99353.59;5038106;27;119738;-71
2022/05/20 05:25:47;;;;;;;11.75;8.38;;;13.60;1.00;;;15.15;92.75;99357.13;5040779;27;119348;-74
2022/05/20 05:28:16;;;;;;;15.13;9.85;;;13.60;1.00;;;15.13;92.84;99364.88;5036653;27;129901;-72
2022/05/20 05:30:47;;;;;;;14.13;9.77;;;13.60;1.00;;;15.06;92.63;99360.78;5039311;27;128834;-74
2022/05/20 05:33:16;;;;;;;13.52;8.95;;;13.50;1.00;;;14.98;93.41;99334.38;5038570;27;121323;-73
2022/05/20 05:35:44;;;;;;;13.13;9.77;;;13.50;1.00;;;14.94;93.84;99341.69;5037567;27;123263;-71
2022/05/20 05:38:13;;;;;;;14.90;9.52;;;13.50;1.00;;;14.97;94.14;99330.06;5037511;27;129856;-71
2022/05/20 05:40:42;;;;;;;19.63;11.77;;;13.50;10.80;;;15.05;93.76;99339.25;5037405;27;130395;-70
2022/05/20 05:43:12;;;;;;;12.38;10.75;;;13.60;18.10;;;15.07;93.84;99346.00;5037559;27;119823;-72
2022/05/20 05:45:41;;;;;;;14.18;9.63;;;13.50;1.00;;;15.08;94.36;99357.72;5038057;27;119541;-70
2022/05/20 05:48:11;;;;;;;15.40;11.65;;;13.50;24.00;;;15.15;94.25;99351.69;5037349;27;130891;-69
2022/05/20 05:50:42;;;;;;;15.43;11.25;;;13.60;61.10;;;15.23;94.53;99351.53;5037831;27;129662;-69
2022/05/20 05:53:14;;;;;;;17.73;10.30;;;13.70;91.10;;;15.21;94.83;99344.81;5039506;27;118742;-69
2022/05/20 05:55:47;;;;;;;15.63;10.93;;;13.70;98.10;;;15.13;95.08;99343.00;5038356;27;120475;-70
2022/05/20 05:58:17;;;;;;;14.93;11.35;;;13.60;99.90;;;15.08;95.20;99336.66;5035920;27;130198;-72
2022/05/20 06:00:46;;;;;;;15.30;10.60;;;13.60;99.90;;;15.13;95.29;99343.00;5037184;27;130203;-69
2022/05/20 06:03:16;;;;;;;15.88;12.55;;;13.60;99.90;;;15.10;95.71;99334.38;5037765;27;119561;-70
2022/05/20 06:05:46;;;;;;;18.13;13.40;;;13.60;99.90;;;15.15;95.96;99343.47;5040737;27;119694;-69
2022/05/20 06:08:16;;;;;;;19.90;13.45;;;13.70;99.90;;;15.18;96.49;99340.06;5043254;27;129718;-69
2022/05/20 06:10:46;;;;;;;14.57;12.63;;;13.80;99.90;;;15.21;96.52;99339.34;5059728;27;130249;-70
2022/05/20 06:13:22;;;;;;;18.95;12.32;;;13.90;99.90;;;15.31;96.60;99332.59;5060863;27;119590;-70
2022/05/20 06:15:51;;;;;;;19.50;12.90;;;14.00;99.90;;;15.46;96.28;99340.84;5061424;27;120057;-69
2022/05/20 06:18:20;;;;;;;17.63;13.73;;;14.00;99.90;;;15.70;95.29;99339.16;5041860;27;130537;-69
2022/05/20 06:20:49;;;;;;;17.88;13.30;;;14.20;99.90;;;15.94;94.39;99341.00;5051454;27;129693;-71
2022/05/20 06:23:18;;;;;;;17.05;12.05;;;14.40;99.90;;;16.21;93.66;99337.75;5059851;27;122758;-67
2022/05/20 06:25:47;;;;;;;19.40;12.73;;;14.50;95.30;;;16.48;92.51;99328.63;5060616;27;122006;-68
2022/05/20 06:28:19;;;;;;;15.77;12.27;;;14.70;29.80;;;16.75;91.24;99320.63;5062053;27;129750;-68
2022/05/20 06:30:48;;;;;;;16.10;12.35;;;14.80;1.00;;;16.94;90.60;99319.09;5058601;27;129846;-68
2022/05/20 06:33:17;;;;;;;18.95;12.75;;;15.10;1.00;;;17.18;89.52;99321.56;5060562;27;120907;-70
2022/05/20 06:41:25;;;;;;;16.75;13.27;;;15.30;1.00;;;17.38;87.53;99302.38;5060338;27;129927;-67
2022/05/20 06:43:57;;;;;;;16.92;12.07;;;15.40;1.00;;;17.46;85.86;99312.34;5045513;27;118795;-69
2022/05/20 06:46:26;;;;;;;21.05;12.55;;;15.40;1.00;;;17.70;85.73;99313.97;5060528;27;119423;-68
2022/05/20 06:48:56;;;;;;;19.67;12.95;;;15.50;1.00;;;17.96;84.80;99307.78;5058840;27;130570;-70
2022/05/20 06:51:27;;;;;;;20.55;13.45;;;15.60;1.00;;;18.18;84.16;99308.16;5060020;27;129683;-68
2022/05/20 06:53:59;;;;;;;19.33;12.48;;;15.80;1.00;;;18.48;83.11;99297.25;5060321;27;120264;-70
2022/05/20 06:56:30;;;;;;;17.95;12.40;;;15.90;1.00;;;18.83;81.70;99300.88;5061428;27;118432;-68
2022/05/20 06:59:02;;;;;;;16.38;12.55;;;16.10;1.00;;;19.12;79.35;99295.78;5060031;27;129813;-69
2022/05/20 07:01:31;;;;;;;15.63;12.13;;;16.20;1.00;;;19.31;78.28;99284.63;5060099;27;129532;-71
2022/05/20 07:04:00;;;;;;;16.70;11.45;;;16.50;1.00;;;19.58;76.89;99293.53;5060033;27;119686;-72
2022/05/20 07:06:30;;;;;;;20.38;11.93;;;16.70;1.00;;;19.86;75.95;99283.25;5059846;27;119451;-73
2022/05/20 07:08:58;;;;;;;16.83;11.48;;;16.90;1.00;;;20.15;75.32;99286.22;5059676;27;130687;-72
2022/05/20 07:11:27;;;;;;;17.17;11.88;;;17.20;1.00;;;20.13;74.21;99283.06;5059896;27;129835;-74
2022/05/20 07:13:58;;;;;;;16.58;11.25;;;17.10;1.00;;;20.13;74.49;99280.31;5057521;27;122752;-74
2022/05/20 07:16:30;;;;;;;17.45;12.52;;;17.10;1.00;;;20.23;73.81;99274.09;5059253;27;121677;-75
2022/05/20 07:18:59;;;;;;;15.60;11.75;;;17.20;1.00;;;20.38;73.22;99281.31;5041414;27;129843;-73
2022/05/20 07:21:27;;;;;;;15.20;10.57;;;17.20;1.00;;;20.34;72.70;99274.19;5058611;27;129447;-72
2022/05/20 07:23:56;;;;;;;14.60;10.88;;;17.10;1.00;;;20.43;71.46;99264.41;5059789;27;119778;-71
2022/05/20 07:26:25;;;;;;;15.13;11.00;;;17.10;1.00;;;20.58;71.33;99267.25;5059671;27;119277;-71
2022/05/20 07:28:53;;;;;;;14.80;9.55;;;17.20;1.00;;;20.73;69.55;99268.94;5059500;27;129448;-73
2022/05/20 07:31:24;;;;;;;15.43;10.60;;;17.40;1.00;;;20.76;68.57;99273.69;5059826;27;130067;-73
2022/05/20 07:33:54;;;;;;;14.95;9.48;;;17.40;1.00;;;20.65;69.35;99272.84;5059963;27;119669;-74
2022/05/20 07:36:23;;;;;;;13.32;9.65;;;17.40;1.00;;;20.73;67.95;99271.69;5059945;27;119501;-73
2022/05/20 07:38:52;;;;;;;14.60;9.25;;;17.50;1.00;;;20.73;67.19;99266.19;5058513;27;129680;-72
2022/05/20 07:41:23;;;;;;;13.02;9.70;;;17.40;1.00;;;20.91;68.23;99262.72;5059465;27;129969;-76
2022/05/20 07:43:51;;;;;;;17.98;13.18;;;17.60;1.00;;;20.88;67.08;99266.25;5052391;27;119561;-74
2022/05/20 07:46:20;;;;;;;15.55;12.25;;;17.50;1.00;;;20.76;67.51;99270.16;5054775;27;119877;-77
2022/05/20 07:48:48;;;;;;;17.45;12.13;;;17.30;1.00;;;20.58;67.12;99278.28;5037428;27;129949;-75
2022/05/20 07:51:22;;;;;;;15.80;11.70;;;17.20;1.00;;;20.53;67.46;99270.38;5040547;27;129647;-76
2022/05/20 07:53:56;;;;;;;16.73;12.52;;;17.20;1.00;;;20.60;67.37;99264.88;5039009;27;119879;-75
2022/05/20 07:56:31;;;;;;;12.95;10.85;;;17.30;1.00;;;20.66;68.12;99271.66;5040999;27;120555;-76
2022/05/20 07:59:07;;;;;;;12.90;9.75;;;17.50;1.00;;;20.51;66.83;99273.50;5039130;27;130642;-73
2022/05/20 08:01:40;;;;;;;15.88;8.65;;;17.30;1.00;;;20.63;66.70;99269.63;5040391;27;129488;-75
2022/05/20 08:07:03;;;;;;;9.80;6.80;;;17.20;1.00;;;20.61;64.92;99277.50;5040085;27;121599;-76
2022/05/20 08:09:31;;;;;;;9.30;6.93;;;17.40;1.00;;;20.92;64.85;99269.81;5057304;27;128979;-74
2022/05/20 08:12:01;;;;;;;10.57;6.25;;;17.60;1.00;;;21.44;64.40;99266.84;5038619;27;129777;-76
2022/05/20 08:14:29;;;;;;;9.00;6.20;;;18.00;1.00;;;21.45;63.47;99266.44;5040795;27;118832;-75
2022/05/20 08:16:59;;;;;;;11.15;6.50;;;18.00;1.00;;;21.44;62.07;99267.66;5038746;27;120287;-79
2022/05/20 08:19:28;;;;;;;9.82;5.82;;;17.90;1.00;;;21.49;63.09;99258.22;5038321;27;130853;-76
2022/05/20 08:21:57;;;;;;;7.55;5.53;;;18.10;1.00;;;21.50;61.23;99254.25;5039050;27;131669;-77
2022/05/20 08:24:27;;;;;;;7.57;5.20;;;18.00;1.00;;;21.66;60.75;99262.19;5038697;27;119687;-76
2022/05/20 08:26:55;;;;;;;14.13;5.47;;;18.10;1.00;;;21.82;61.22;99248.00;5039817;27;119593;-77
2022/05/20 08:29:24;;;;;;;8.60;5.38;;;18.30;1.00;;;21.74;60.88;99244.44;5037133;27;129667;-76
2022/05/20 08:31:52;;;;;;;9.55;5.82;;;18.40;1.00;;;21.77;59.99;99249.19;5038132;27;129395;-80
2022/05/20 08:34:21;;;;;;;9.73;5.18;;;18.50;1.00;;;21.52;61.25;99235.34;5038499;27;120105;-78
2022/05/20 08:36:49;;;;;;;8.55;6.10;;;18.20;1.00;;;21.15;63.09;99228.91;5040689;27;118359;-79
2022/05/20 08:39:18;;;;;;;8.80;5.68;;;18.00;1.00;;;20.78;63.72;99227.19;5038594;27;130447;-76
2022/05/20 08:41:52;;;;;;;10.20;5.90;;;17.60;1.00;;;20.72;64.04;99217.72;5038421;27;130450;-80
2022/05/20 08:44:24;;;;;;;8.93;6.07;;;17.60;1.00;;;20.78;63.48;99210.66;5039049;27;119493;-82
2022/05/20 08:47:07;;;;;;;11.93;6.68;;;17.80;1.00;;;20.87;63.74;99206.78;5038794;27;119403;-76
2022/05/20 08:49:39;;;;;;;8.10;6.15;;;17.90;1.00;;;20.85;64.09;99193.38;5037091;27;130065;-78
2022/05/20 08:52:08;;;;;;;8.77;6.18;;;17.70;1.00;;;20.90;65.51;99183.94;5039381;27;130106;-81
2022/05/20 08:54:36;;;;;;;9.77;6.32;;;17.90;1.00;;;20.90;65.14;99183.94;5035679;27;123004;-74
2022/05/20 08:57:20;;;;;;;10.60;7.55;;;18.00;1.00;;;20.81;65.79;99187.81;5040936;27;102670;-80
2022/05/20 08:59:49;;;;;;;12.55;7.68;;;17.80;1.00;;;20.98;65.48;99178.03;5038060;27;130974;-82
2022/05/20 09:02:17;;;;;;;11.10;7.43;;;18.10;1.00;;;20.88;65.97;99175.25;5040080;27;129319;-82
2022/05/20 09:04:45;;;;;;;12.02;7.45;;;18.00;1.00;;;20.93;65.69;99166.59;5038778;27;119670;-78
2022/05/20 09:07:17;;;;;;;10.70;7.13;;;17.90;1.00;;;21.17;64.97;99168.63;5038691;27;119527;-76
2022/05/20 09:09:49;;;;;;;10.77;7.25;;;18.20;1.00;;;21.40;64.37;99161.97;5036670;27;130141;-78
2022/05/20 09:12:31;;;;;;;9.98;7.28;;;18.40;1.00;;;21.43;64.43;99166.69;5038662;27;130117;-83
2022/05/20 09:17:52;;;;;;;10.30;7.47;;;18.80;1.00;;;22.00;62.77;99181.69;5039958;27;118294;-79
2022/05/20 09:20:24;;;;;;;9.82;7.15;;;18.90;1.00;;;22.20;62.49;99166.25;5037482;27;129959;-80
2022/05/20 09:23:03;;;;;;;10.23;6.95;;;19.00;1.00;;;22.43;60.74;99168.59;5038901;27;129559;-80
2022/05/20 09:25:36;;;;;;;8.98;7.10;;;19.30;1.00;;;22.81;61.08;99162.53;5038652;27;119865;-78
2022/05/20 09:28:37;;;;;;;9.18;6.63;;;19.40;1.00;;;22.49;60.09;99163.47;5038731;27;119613;-83
2022/05/20 09:31:17;;;;;;;10.23;5.80;;;19.20;1.00;;;22.49;59.65;99157.94;5037538;27;130232;-75
2022/05/20 09:34:03;;;;;;;10.70;6.47;;;19.20;1.00;;;22.34;60.69;99150.88;5038036;27;130663;-84
2022/05/20 09:36:39;;;;;;;12.18;6.85;;;19.20;1.00;;;22.24;60.12;99146.94;5039197;27;119716;-78
2022/05/20 09:39:12;;;;;;;8.43;5.32;;;18.90;1.00;;;22.43;60.07;99138.19;5040478;27;120157;-76
2022/05/20 09:41:51;;;;;;;9.95;6.10;;;19.20;1.00;;;22.21;60.20;99142.97;5041747;27;130573;-82
2022/05/20 09:44:25;;;;;;;9.85;5.82;;;18.90;1.00;;;22.46;60.18;99133.06;5041223;27;129661;-78
2022/05/20 09:47:00;;;;;;;7.88;5.65;;;19.20;1.00;;;22.74;59.26;99129.38;5036853;27;122437;-77
2022/05/20 09:49:43;;;;;;;12.98;6.28;;;19.50;1.00;;;23.05;58.58;99137.91;5043620;27;121605;-77
2022/05/20 09:52:36;;;;;;;8.40;5.82;;;19.60;1.00;;;23.26;59.19;99137.78;5040680;27;129862;-80
2022/05/20 09:55:12;;;;;;;9.27;5.85;;;19.90;1.00;;;23.46;57.84;99128.94;5041272;27;129978;-83
2022/05/20 09:57:44;;;;;;;9.02;6.15;;;20.10;1.00;;;23.91;57.87;99126.19;5043508;27;119436;-78
2022/05/20 10:00:23;;;;;;;10.77;6.63;;;20.50;1.00;;;24.34;56.80;99127.69;5042910;27;118351;-76
2022/05/20 10:03:00;;;;;;;13.10;6.22;;;20.80;1.00;;;24.41;56.04;99122.84;5040898;27;129779;-78
2022/05/20 10:05:35;;;;;;;10.68;6.50;;;20.80;1.00;;;24.22;56.25;99117.94;5041503;27;129875;-77
2022/05/20 10:08:14;;;;;;;11.23;6.60;;;20.70;1.00;;;24.48;56.32;99112.88;5042968;27;118858;-75
2022/05/20 10:11:00;;;;;;;9.98;6.57;;;21.00;1.00;;;24.81;55.11;99107.72;5041062;27;119820;-79
2022/05/20 10:13:41;;;;;;;;;;;21.40;1.00;;;24.82;54.93;99104.53;5039864;27;130072;-75
2022/05/20 10:16:28;;;;;;;8.52;5.07;;;21.50;1.00;;;24.99;51.19;99086.03;5043072;27;129298;-79
2022/05/20 10:19:11;;;;;;;8.40;4.05;;;21.30;99.90;;;24.96;49.30;99084.09;5041127;27;120092;-76
2022/05/20 10:21:54;;;;;;;5.55;3.80;;;21.40;99.90;;;25.03;48.69;99081.22;5040679;27;119424;-75
2022/05/20 10:24:46;;;;;;;7.35;3.85;;;21.50;99.90;;;24.94;47.58;99075.44;5042266;27;128772;-77
2022/05/20 10:27:22;;;;;;;6.95;3.95;;;21.50;99.90;;;25.09;47.47;99060.13;5040299;27;130072;-78
2022/05/20 10:32:54;;;;;;;7.28;3.65;;;21.40;99.90;;;24.92;47.44;99050.88;4998755;27;119525;-76
2022/05/20 10:35:30;;;;;;;5.82;3.50;;;21.70;99.90;;;25.09;46.49;99040.69;5025282;27;129808;-80
2022/05/20 10:38:29;;;;;;;7.35;3.75;;;21.50;99.90;;;24.62;47.74;99032.31;5042148;27;130312;-75
2022/05/20 10:41:05;;;;;;;6.97;4.05;;;21.50;99.90;;;24.99;47.28;99041.63;5039277;27;121841;-76
2022/05/20 10:50:06;;;;;;;8.68;4.03;;;21.90;99.90;;;25.30;46.79;99011.03;4959322;28;130519;-80
2022/05/20 10:53:03;;;;;;;7.22;3.67;;;22.30;99.90;;;25.63;47.24;99008.44;5025556;27;119096;-76
2022/05/20 10:55:47;;;;;;;8.77;3.72;;;22.30;99.90;;;25.53;46.76;99010.22;5040272;27;119365;-80
2022/05/20 10:59:16;;;;;;;7.20;4.10;;;22.40;99.90;;;25.10;46.57;99008.97;5038442;27;130021;-75
2022/05/20 11:01:59;;;;;;;7.38;3.30;;;21.90;99.90;;;24.97;45.77;99012.75;5006870;27;130155;-74
2022/05/20 11:05:03;;;;;;;7.75;3.78;;;21.60;99.90;;;24.80;47.84;98995.19;5039712;27;119499;-74
2022/05/20 11:08:13;;;;;;;8.88;3.85;;;21.80;99.90;;;24.94;46.47;98989.38;5037933;27;120411;-74
2022/05/20 11:11:12;;;;;;;7.47;3.83;;;21.90;99.90;;;25.25;46.11;98992.03;5038382;27;130406;-77
2022/05/20 11:14:07;;;;;;;7.03;3.70;;;22.20;99.90;;;25.27;42.76;98984.88;5039750;27;130190;-79
2022/05/20 11:17:00;;;;;;;8.55;3.83;;;22.30;99.90;;;25.48;43.55;98972.59;5038452;27;120366;-78